Time;durP1;ratioP1;P1;durP2;ratioP2;P2;SDS_P1;SDS_P2;PMS_P1;PMS_P2;Temp;Humidity;BMP_temperature;BMP_pressure;BME280_temperature;BME280_humidity;BME280_pressure;Samples;Min_cycle;Max_cycle;Signal;HPM_P1;HPM_P2
2021/12/21 00:01:37;;;;;;;10.98;5.25;;;;;;;;;;5041904;28;20044;-73
2021/12/21 00:04:03;;;;;;;11.18;5.68;;;;;;;;;;5034939;28;20036;-74
2021/12/21 00:06:29;;;;;;;16.27;5.60;;;;;;;;;;5047670;28;20021;-75
2021/12/21 00:08:56;;;;;;;12.15;4.97;;;;;;;;;;5036214;28;20099;-78
2021/12/21 00:11:22;;;;;;;10.88;5.88;;;;;;;;;;5041364;28;20025;-75
2021/12/21 00:16:40;;;;;;;13.02;6.10;;;;;;;;;;5038354;28;20029;-75
2021/12/21 00:19:26;;;;;;;14.95;7.72;;;;;;;;;;5045265;28;20068;-75
2021/12/21 00:22:01;;;;;;;28.55;9.82;;;;;;;;;;5046873;28;20143;-75
2021/12/21 00:24:33;;;;;;;17.60;7.32;;;;;;;;;;5035776;28;20491;-76
2021/12/21 00:27:00;;;;;;;19.23;6.97;;;;;;;;;;5045037;28;20025;-77
2021/12/21 00:29:26;;;;;;;15.80;7.18;;;;;;;;;;5043718;28;20036;-74
2021/12/21 00:31:52;;;;;;;18.73;7.35;;;;;;;;;;5038676;28;20421;-75
2021/12/21 00:34:18;;;;;;;18.42;7.95;;;;;;;;;;5049197;28;20040;-74
2021/12/21 00:36:46;;;;;;;15.95;8.25;;;;;;;;;;5039904;28;20025;-74
2021/12/21 00:39:15;;;;;;;12.60;7.72;;;;;;;;;;5046278;28;20415;-76
2021/12/21 00:41:41;;;;;;;12.30;7.53;;;;;;;;;;5046578;28;20078;-75
2021/12/21 00:44:07;;;;;;;15.95;8.70;;;;;;;;;;5038016;28;20026;-76
2021/12/21 00:46:33;;;;;;;15.18;7.85;;;;;;;;;;5042909;28;20021;-76
2021/12/21 00:49:12;;;;;;;12.30;7.50;;;;;;;;;;5047372;28;20032;-77
2021/12/21 00:51:38;;;;;;;18.27;8.45;;;;;;;;;;5033878;28;20025;-75
2021/12/21 00:54:04;;;;;;;16.27;8.02;;;;;;;;;;5049859;28;20032;-75
2021/12/21 00:56:30;;;;;;;15.68;7.78;;;;;;;;;;5037934;28;20025;-76
2021/12/21 00:58:56;;;;;;;11.25;6.78;;;;;;;;;;5047818;28;20029;-76
2021/12/21 01:01:21;;;;;;;17.08;7.30;;;;;;;;;;5034820;28;20033;-75
2021/12/21 01:03:51;;;;;;;15.77;8.57;;;;;;;;;;5047712;28;20120;-76
2021/12/21 01:11:27;;;;;;;18.52;8.05;;;;;;;;;;5044478;28;20120;-78
2021/12/21 01:14:05;;;;;;;22.73;8.63;;;;;;;;;;5041847;28;20057;-76
2021/12/21 01:16:41;;;;;;;15.80;8.07;;;;;;;;;;5052592;28;20033;-75
2021/12/21 01:19:29;;;;;;;17.52;9.02;;;;;;;;;;5036059;28;20029;-76
2021/12/21 01:22:04;;;;;;;14.95;8.73;;;;;;;;;;5049206;28;20047;-76
2021/12/21 01:27:30;;;;;;;19.02;9.02;;;;;;;;;;5045341;28;20037;-75
2021/12/21 01:30:09;;;;;;;14.98;9.15;;;;;;;;;;5047404;28;20021;-75
2021/12/21 01:35:28;;;;;;;15.85;8.80;;;;;;;;;;5046108;28;20510;-77
2021/12/21 01:38:00;;;;;;;19.25;9.90;;;;;;;;;;5048113;28;20072;-76
2021/12/21 01:43:16;;;;;;;21.58;10.32;;;;;;;;;;5046828;28;20026;-74
2021/12/21 01:51:12;;;;;;;20.42;10.48;;;;;;;;;;5042103;28;20041;-75
2021/12/21 01:53:39;;;;;;;18.73;10.90;;;;;;;;;;5039334;28;20047;-75
2021/12/21 01:56:06;;;;;;;20.60;11.50;;;;;;;;;;5046079;28;20025;-76
2021/12/21 01:58:33;;;;;;;21.08;9.65;;;;;;;;;;5039089;28;20020;-76
2021/12/21 02:00:59;;;;;;;25.92;11.68;;;;;;;;;;5053292;28;20052;-77
2021/12/21 02:03:25;;;;;;;21.17;11.13;;;;;;;;;;5040921;28;20479;-76
2021/12/21 02:05:51;;;;;;;23.75;11.15;;;;;;;;;;5047200;28;20028;-77
2021/12/21 02:08:17;;;;;;;21.38;11.30;;;;;;;;;;5036635;28;20037;-75
2021/12/21 02:10:43;;;;;;;19.90;11.68;;;;;;;;;;5047120;28;20422;-74
2021/12/21 02:13:09;;;;;;;27.80;14.25;;;;;;;;;;5040462;28;20394;-75
2021/12/21 02:15:35;;;;;;;23.95;11.45;;;;;;;;;;5041404;28;20021;-75
2021/12/21 02:28:09;;;;;;;23.30;12.90;;;;;;;;;;5052878;28;20086;-75
2021/12/21 02:30:37;;;;;;;23.20;13.18;;;;;;;;;;5020075;28;20028;-76
2021/12/21 02:33:03;;;;;;;29.20;14.20;;;;;;;;;;5044753;28;20033;-75
2021/12/21 02:35:29;;;;;;;33.45;14.93;;;;;;;;;;5042809;28;20070;-75
2021/12/21 02:37:55;;;;;;;30.77;13.75;;;;;;;;;;5053510;28;20033;-75
2021/12/21 02:40:21;;;;;;;21.25;12.30;;;;;;;;;;5039420;28;20079;-75
2021/12/21 02:42:47;;;;;;;23.13;12.60;;;;;;;;;;5050837;28;20021;-76
2021/12/21 02:45:13;;;;;;;32.92;13.70;;;;;;;;;;5041715;28;20398;-75
2021/12/21 02:47:39;;;;;;;25.30;14.15;;;;;;;;;;5047549;28;20028;-75
2021/12/21 02:50:06;;;;;;;23.40;12.45;;;;;;;;;;5054893;28;20021;-76
2021/12/21 02:52:33;;;;;;;29.40;15.05;;;;;;;;;;5034995;28;20467;-75
2021/12/21 02:54:59;;;;;;;27.33;14.80;;;;;;;;;;5045072;28;20025;-75
2021/12/21 02:57:25;;;;;;;33.00;14.75;;;;;;;;;;5042740;28;20033;-75
2021/12/21 02:59:51;;;;;;;22.58;12.52;;;;;;;;;;5052535;28;20071;-75
2021/12/21 03:02:17;;;;;;;32.65;15.52;;;;;;;;;;5035755;28;20021;-76
2021/12/21 03:04:44;;;;;;;30.13;14.25;;;;;;;;;;5047220;28;20017;-75
2021/12/21 03:10:02;;;;;;;20.58;13.00;;;;;;;;;;5038455;28;20562;-75
2021/12/21 03:15:18;;;;;;;22.77;12.93;;;;;;;;;;5012658;28;20044;-75
2021/12/21 03:17:44;;;;;;;25.33;13.73;;;;;;;;;;5039178;28;20107;-75
2021/12/21 03:20:11;;;;;;;28.15;13.73;;;;;;;;;;5030804;28;20025;-77
2021/12/21 03:22:36;;;;;;;24.15;13.48;;;;;;;;;;5052174;28;20082;-77
2021/12/21 03:25:05;;;;;;;28.42;13.25;;;;;;;;;;5042608;28;20482;-77
2021/12/21 03:27:31;;;;;;;22.05;13.35;;;;;;;;;;5043132;28;20021;-75
2021/12/21 03:29:57;;;;;;;22.00;11.85;;;;;;;;;;5037472;28;20079;-75
2021/12/21 03:32:23;;;;;;;23.63;12.77;;;;;;;;;;5046976;28;20425;-74
2021/12/21 03:34:50;;;;;;;22.00;13.15;;;;;;;;;;5031115;28;20369;-75
2021/12/21 03:37:16;;;;;;;23.85;14.43;;;;;;;;;;5033844;28;20036;-74
2021/12/21 03:39:42;;;;;;;22.08;13.38;;;;;;;;;;5047136;28;20040;-75
2021/12/21 03:42:09;;;;;;;27.85;15.07;;;;;;;;;;5055174;28;20021;-77
2021/12/21 03:44:35;;;;;;;33.72;15.65;;;;;;;;;;5038466;28;20029;-75
2021/12/21 03:47:01;;;;;;;24.55;13.00;;;;;;;;;;5041354;28;20025;-76
2021/12/21 03:52:17;;;;;;;32.05;16.15;;;;;;;;;;5047026;28;20033;-75
2021/12/21 03:54:44;;;;;;;23.45;13.23;;;;;;;;;;5018725;28;20371;-77
2021/12/21 03:57:11;;;;;;;26.95;14.85;;;;;;;;;;5043085;28;20491;-75
2021/12/21 03:59:37;;;;;;;27.02;14.48;;;;;;;;;;5042244;28;20143;-75
2021/12/21 04:02:04;;;;;;;25.85;14.30;;;;;;;;;;5035838;28;20026;-76
2021/12/21 04:04:30;;;;;;;22.75;13.13;;;;;;;;;;5050018;28;20029;-78
2021/12/21 04:06:56;;;;;;;23.95;13.30;;;;;;;;;;5044927;28;20091;-78
2021/12/21 04:09:22;;;;;;;22.38;13.93;;;;;;;;;;5041035;28;20091;-76
2021/12/21 04:11:49;;;;;;;33.30;14.63;;;;;;;;;;5037762;28;20075;-78
2021/12/21 04:14:17;;;;;;;27.30;14.35;;;;;;;;;;5047033;28;20107;-76
2021/12/21 04:16:43;;;;;;;26.83;14.30;;;;;;;;;;5035920;28;20056;-76
2021/12/21 04:19:09;;;;;;;25.98;15.13;;;;;;;;;;5042854;28;20091;-74
2021/12/21 04:21:35;;;;;;;24.08;13.30;;;;;;;;;;5027860;28;20116;-76
2021/12/21 04:24:01;;;;;;;19.15;12.77;;;;;;;;;;5040951;28;20036;-75
2021/12/21 04:26:27;;;;;;;26.88;14.48;;;;;;;;;;5034587;28;20055;-74
2021/12/21 04:28:53;;;;;;;23.80;13.35;;;;;;;;;;5045101;28;20163;-75
2021/12/21 04:31:19;;;;;;;28.23;14.38;;;;;;;;;;5040546;28;20021;-76
2021/12/21 04:33:46;;;;;;;20.20;12.48;;;;;;;;;;5036240;28;20403;-76
2021/12/21 04:36:13;;;;;;;23.02;13.50;;;;;;;;;;5048299;28;20029;-76
2021/12/21 04:38:43;;;;;;;25.95;13.23;;;;;;;;;;5052496;22;20050;-73
2021/12/21 04:41:28;;;;;;;24.55;13.43;;;;;;;;;;5030867;28;20411;-72
2021/12/21 04:43:55;;;;;;;20.45;12.93;;;;;;;;;;5030337;28;20052;-73
2021/12/21 04:46:21;;;;;;;27.58;14.05;;;;;;;;;;5029278;28;20029;-73
2021/12/21 04:48:48;;;;;;;24.88;13.73;;;;;;;;;;5016331;28;20021;-73
2021/12/21 04:51:14;;;;;;;30.60;14.40;;;;;;;;;;5029864;28;20033;-73
2021/12/21 04:53:40;;;;;;;23.73;14.00;;;;;;;;;;5028981;28;20422;-72
2021/12/21 04:56:07;;;;;;;24.20;13.63;;;;;;;;;;5030941;28;20033;-73
2021/12/21 04:58:33;;;;;;;23.77;13.88;;;;;;;;;;5031007;28;20032;-73
2021/12/21 05:00:59;;;;;;;22.65;13.07;;;;;;;;;;5034115;28;20028;-73
2021/12/21 05:03:25;;;;;;;27.15;14.73;;;;;;;;;;5032927;28;20033;-73
2021/12/21 05:05:51;;;;;;;24.17;13.00;;;;;;;;;;5034752;28;20095;-73
2021/12/21 05:08:26;;;;;;;27.50;13.57;;;;;;;;;;5034416;28;20029;-73
2021/12/21 05:10:57;;;;;;;27.65;13.40;;;;;;;;;;5034248;28;20045;-72
2021/12/21 05:13:28;;;;;;;22.42;13.30;;;;;;;;;;5032169;28;20022;-73
2021/12/21 05:15:54;;;;;;;23.15;11.70;;;;;;;;;;5034090;28;20030;-73
2021/12/21 05:18:20;;;;;;;23.15;12.60;;;;;;;;;;5034020;28;20040;-73
2021/12/21 05:20:46;;;;;;;24.40;13.77;;;;;;;;;;5032998;28;20049;-73
2021/12/21 05:23:13;;;;;;;25.38;13.52;;;;;;;;;;5033406;28;20072;-73
2021/12/21 05:25:39;;;;;;;24.15;14.40;;;;;;;;;;5034091;28;20028;-73
2021/12/21 05:28:07;;;;;;;20.35;12.82;;;;;;;;;;5033604;28;20026;-74
2021/12/21 05:30:34;;;;;;;26.60;14.77;;;;;;;;;;5032602;28;20025;-73
2021/12/21 05:33:00;;;;;;;27.85;14.05;;;;;;;;;;5033375;28;20030;-72
2021/12/21 05:35:27;;;;;;;29.30;14.82;;;;;;;;;;5034220;28;20032;-73
2021/12/21 05:37:57;;;;;;;26.23;14.63;;;;;;;;;;5034098;28;20025;-73
2021/12/21 05:40:30;;;;;;;27.27;13.52;;;;;;;;;;5033674;28;20032;-73
2021/12/21 05:42:56;;;;;;;25.80;13.90;;;;;;;;;;5031602;28;20053;-73
2021/12/21 05:45:22;;;;;;;24.20;13.85;;;;;;;;;;5032287;28;20021;-74
2021/12/21 05:47:48;;;;;;;26.15;14.45;;;;;;;;;;5020462;28;20096;-74
2021/12/21 05:50:16;;;;;;;33.88;15.55;;;;;;;;;;5030307;28;20112;-72
2021/12/21 05:52:43;;;;;;;32.15;17.08;;;;;;;;;;5033074;28;20021;-74
2021/12/21 05:55:09;;;;;;;39.25;19.33;;;;;;;;;;5031623;28;20445;-73
2021/12/21 05:57:35;;;;;;;29.15;16.55;;;;;;;;;;5033512;28;20029;-73
2021/12/21 06:00:03;;;;;;;30.50;17.33;;;;;;;;;;5033319;28;20033;-72
2021/12/21 06:02:29;;;;;;;26.30;15.50;;;;;;;;;;5033141;28;20017;-73
2021/12/21 06:04:55;;;;;;;28.45;15.65;;;;;;;;;;5032321;28;20522;-72
2021/12/21 06:07:21;;;;;;;25.05;14.30;;;;;;;;;;5031647;28;20041;-73
2021/12/21 06:09:48;;;;;;;25.67;15.07;;;;;;;;;;5031339;28;20041;-74
2021/12/21 06:12:29;;;;;;;27.25;15.18;;;;;;;;;;5031888;28;20021;-71
2021/12/21 06:23:17;;;;;;;20.48;13.50;;;;;;;;;;5026178;28;20040;-71
2021/12/21 06:25:53;;;;;;;24.20;14.98;;;;;;;;;;5031426;28;20075;-72
2021/12/21 06:28:19;;;;;;;28.48;15.40;;;;;;;;;;5032280;28;20029;-70
2021/12/21 06:30:45;;;;;;;27.33;15.95;;;;;;;;;;5032642;28;20038;-72
2021/12/21 06:33:11;;;;;;;24.35;14.63;;;;;;;;;;5031588;28;20029;-72
2021/12/21 06:35:38;;;;;;;23.90;14.57;;;;;;;;;;5032608;28;20411;-72
2021/12/21 06:38:04;;;;;;;25.63;14.25;;;;;;;;;;5032064;28;20033;-72
2021/12/21 06:40:31;;;;;;;24.40;13.85;;;;;;;;;;5032094;28;20124;-73
2021/12/21 06:43:00;;;;;;;22.58;14.23;;;;;;;;;;5030656;28;20502;-73
2021/12/21 06:45:32;;;;;;;25.30;13.32;;;;;;;;;;5032807;28;20619;-73
2021/12/21 06:53:27;;;;;;;25.08;12.73;;;;;;;;;;5031367;28;20071;-72
2021/12/21 06:55:53;;;;;;;27.80;12.95;;;;;;;;;;5032129;28;20104;-72
2021/12/21 06:58:22;;;;;;;21.73;12.98;;;;;;;;;;5032149;28;20025;-73
2021/12/21 07:00:49;;;;;;;25.98;13.68;;;;;;;;;;5030892;28;20026;-70
2021/12/21 07:03:15;;;;;;;23.83;13.02;;;;;;;;;;5031366;28;20104;-73
2021/12/21 07:05:44;;;;;;;20.20;12.13;;;;;;;;;;5030925;28;20033;-72
2021/12/21 07:08:15;;;;;;;26.33;13.48;;;;;;;;;;5030561;28;20025;-71
2021/12/21 07:10:44;;;;;;;25.55;14.45;;;;;;;;;;5032269;28;20025;-72
2021/12/21 07:18:39;;;;;;;27.02;14.07;;;;;;;;;;5018770;28;20534;-73
2021/12/21 07:21:11;;;;;;;24.90;15.23;;;;;;;;;;5033358;28;20021;-72
2021/12/21 07:23:43;;;;;;;25.70;14.73;;;;;;;;;;5031052;28;20029;-73
2021/12/21 07:26:09;;;;;;;29.48;15.68;;;;;;;;;;5032100;28;20032;-72
2021/12/21 07:28:35;;;;;;;29.02;15.43;;;;;;;;;;5015780;28;20075;-72
2021/12/21 07:31:01;;;;;;;30.63;16.17;;;;;;;;;;5031642;28;20029;-72
2021/12/21 07:33:28;;;;;;;23.63;14.30;;;;;;;;;;5027901;28;20052;-73
2021/12/21 07:35:56;;;;;;;31.23;15.48;;;;;;;;;;5031365;28;20044;-73
2021/12/21 07:38:30;;;;;;;25.92;13.60;;;;;;;;;;5029680;28;20133;-73
2021/12/21 07:40:57;;;;;;;26.42;14.25;;;;;;;;;;5030508;28;20164;-73
2021/12/21 07:43:25;;;;;;;29.48;15.25;;;;;;;;;;5028547;28;20013;-73
2021/12/21 07:45:52;;;;;;;21.05;13.25;;;;;;;;;;5030562;28;20505;-72
2021/12/21 07:48:20;;;;;;;29.75;15.15;;;;;;;;;;5029976;28;20029;-73
2021/12/21 07:50:47;;;;;;;23.13;14.05;;;;;;;;;;5029271;28;20112;-74
2021/12/21 07:53:14;;;;;;;26.08;14.07;;;;;;;;;;5030727;28;20087;-73
2021/12/21 07:55:40;;;;;;;22.70;15.07;;;;;;;;;;5029801;28;20032;-73
2021/12/21 07:58:06;;;;;;;26.63;14.57;;;;;;;;;;5029095;28;20494;-72
2021/12/21 08:00:36;;;;;;;25.20;13.48;;;;;;;;;;5029834;28;20025;-72
2021/12/21 08:03:02;;;;;;;22.25;14.00;;;;;;;;;;5030515;28;20033;-72
2021/12/21 08:05:32;;;;;;;26.25;14.23;;;;;;;;;;5031213;28;20021;-72
2021/12/21 08:08:12;;;;;;;24.88;13.27;;;;;;;;;;5031051;28;20483;-74
2021/12/21 08:10:53;;;;;;;25.93;14.67;;;;;;;;;;5015190;28;20033;-74
2021/12/21 08:13:19;;;;;;;;;;;;;;;;;;5028927;28;20211;-74
2021/12/21 08:15:48;;;;;;;17.30;12.50;;;;;;;;;;5029404;28;20020;-71
2021/12/21 08:18:15;;;;;;;20.83;13.50;;;;;;;;;;5027448;28;20041;-75
2021/12/21 08:20:41;;;;;;;26.02;14.10;;;;;;;;;;5021385;28;20070;-72
2021/12/21 08:23:08;;;;;;;27.20;15.07;;;;;;;;;;5031427;28;20021;-72
2021/12/21 08:25:37;;;;;;;24.10;14.90;;;;;;;;;;5029529;28;20520;-73
2021/12/21 08:28:06;;;;;;;33.95;16.40;;;;;;;;;;5030433;28;20021;-71
2021/12/21 08:30:32;;;;;;;28.70;16.65;;;;;;;;;;5030865;28;20108;-72
2021/12/21 08:32:58;;;;;;;26.02;16.77;;;;;;;;;;5028809;28;20686;-72
2021/12/21 08:35:25;;;;;;;27.70;17.55;;;;;;;;;;5034449;28;20021;-72
2021/12/21 08:37:53;;;;;;;33.08;19.10;;;;;;;;;;5035067;28;20026;-73
2021/12/21 08:40:20;;;;;;;36.22;19.30;;;;;;;;;;5032801;28;20499;-70
2021/12/21 08:42:48;;;;;;;35.08;19.60;;;;;;;;;;5032572;28;20017;-71
2021/12/21 08:45:15;;;;;;;32.80;18.92;;;;;;;;;;5033532;28;20017;-71
2021/12/21 08:47:41;;;;;;;35.42;19.17;;;;;;;;;;5033345;28;20120;-72
2021/12/21 08:50:08;;;;;;;37.55;19.45;;;;;;;;;;5032982;28;20399;-71
2021/12/21 08:52:37;;;;;;;32.97;17.70;;;;;;;;;;5017987;28;20109;-73
2021/12/21 08:55:07;;;;;;;33.90;19.20;;;;;;;;;;5031100;28;20032;-71
2021/12/21 08:57:33;;;;;;;32.22;18.75;;;;;;;;;;5031114;28;20068;-73
2021/12/21 09:00:07;;;;;;;41.55;21.83;;;;;;;;;;5033540;28;20029;-73
2021/12/21 09:02:35;;;;;;;32.88;19.20;;;;;;;;;;5032830;28;20085;-72
2021/12/21 09:05:06;;;;;;;38.47;20.48;;;;;;;;;;5032824;28;20478;-72
2021/12/21 09:07:33;;;;;;;34.33;19.45;;;;;;;;;;5033266;28;20018;-72
2021/12/21 09:09:59;;;;;;;38.45;19.30;;;;;;;;;;5033468;28;20030;-72
2021/12/21 09:12:25;;;;;;;32.70;18.95;;;;;;;;;;5033893;28;20442;-72
2021/12/21 09:14:51;;;;;;;38.30;19.42;;;;;;;;;;5032098;28;20014;-73
2021/12/21 09:17:17;;;;;;;31.92;17.48;;;;;;;;;;5034048;28;20321;-71
2021/12/21 09:19:43;;;;;;;34.90;16.85;;;;;;;;;;5039220;28;20644;-72
2021/12/21 09:22:09;;;;;;;29.80;16.63;;;;;;;;;;5033698;28;20491;-73
2021/12/21 09:24:35;;;;;;;58.35;28.70;;;;;;;;;;5033596;28;20763;-71
2021/12/21 09:27:01;;;;;;;39.95;20.85;;;;;;;;;;5033913;28;20076;-71
2021/12/21 09:29:27;;;;;;;46.22;24.52;;;;;;;;;;5032905;28;20060;-69
2021/12/21 09:31:53;;;;;;;73.68;35.33;;;;;;;;;;5030910;28;20029;-74
2021/12/21 09:34:18;;;;;;;38.50;21.63;;;;;;;;;;5031696;28;20052;-73
2021/12/21 09:36:44;;;;;;;53.88;26.42;;;;;;;;;;5030877;28;20017;-73
2021/12/21 09:39:10;;;;;;;33.97;16.95;;;;;;;;;;5031995;28;20041;-72
2021/12/21 09:41:36;;;;;;;35.63;18.52;;;;;;;;;;5033044;28;20018;-68
2021/12/21 09:44:04;;;;;;;31.45;17.15;;;;;;;;;;5032276;28;20022;-70
2021/12/21 09:46:30;;;;;;;30.50;14.98;;;;;;;;;;5029414;28;20411;-69
2021/12/21 09:48:59;;;;;;;27.88;16.02;;;;;;;;;;5028935;28;20446;-68
2021/12/21 09:51:24;;;;;;;28.80;16.75;;;;;;;;;;5030919;28;20446;-68
2021/12/21 09:53:52;;;;;;;31.38;16.70;;;;;;;;;;5030771;28;20049;-68
2021/12/21 09:56:18;;;;;;;33.92;15.82;;;;;;;;;;5031612;28;20028;-68
2021/12/21 09:58:44;;;;;;;40.28;18.52;;;;;;;;;;5029748;28;20021;-68
2021/12/21 10:01:11;;;;;;;25.23;12.35;;;;;;;;;;5031093;28;20108;-67
2021/12/21 10:03:37;;;;;;;20.35;12.82;;;;;;;;;;5033055;28;20418;-68
2021/12/21 10:06:05;;;;;;;21.55;11.70;;;;;;;;;;5033752;28;20087;-68
2021/12/21 10:08:32;;;;;;;22.88;12.13;;;;;;;;;;5032815;28;20047;-68
2021/12/21 10:10:58;;;;;;;25.73;12.75;;;;;;;;;;5033417;28;20431;-69
2021/12/21 10:13:27;;;;;;;27.55;13.82;;;;;;;;;;5032697;28;20100;-69
2021/12/21 10:15:55;;;;;;;22.98;12.05;;;;;;;;;;5030185;28;20030;-68
2021/12/21 10:18:25;;;;;;;19.77;10.45;;;;;;;;;;5030759;28;20020;-69
2021/12/21 10:20:51;;;;;;;21.50;10.38;;;;;;;;;;5030380;28;20400;-67
2021/12/21 10:23:21;;;;;;;24.10;11.15;;;;;;;;;;5018130;28;20091;-68
2021/12/21 10:25:53;;;;;;;27.42;12.50;;;;;;;;;;5033049;28;20056;-68
2021/12/21 10:28:29;;;;;;;25.42;12.75;;;;;;;;;;5025549;28;20069;-67
2021/12/21 10:30:56;;;;;;;28.75;14.45;;;;;;;;;;5013096;28;20057;-68
2021/12/21 10:33:23;;;;;;;22.27;12.30;;;;;;;;;;5013009;28;20053;-70
2021/12/21 10:35:50;;;;;;;19.00;10.82;;;;;;;;;;5013595;28;20056;-70
2021/12/21 10:38:34;;;;;;;30.90;12.93;;;;;;;;;;5014033;28;20556;-69
2021/12/21 10:41:27;;;;;;;27.60;13.55;;;;;;;;;;5024868;28;20037;-68
2021/12/21 10:44:04;;;;;;;23.58;12.43;;;;;;;;;;5010682;28;20127;-68
2021/12/21 10:46:32;;;;;;;20.85;12.10;;;;;;;;;;5032841;28;20402;-68
2021/12/21 10:49:04;;;;;;;18.60;11.35;;;;;;;;;;5031628;28;20018;-67
2021/12/21 10:51:30;;;;;;;23.40;11.73;;;;;;;;;;5032285;28;20025;-67
2021/12/21 10:53:56;;;;;;;22.88;10.82;;;;;;;;;;5031957;28;20029;-67
2021/12/21 10:56:22;;;;;;;19.67;10.27;;;;;;;;;;5031661;28;20033;-66
2021/12/21 10:58:48;;;;;;;16.77;9.25;;;;;;;;;;5030651;28;20032;-67
2021/12/21 11:01:16;;;;;;;20.20;11.32;;;;;;;;;;5032141;28;20040;-67
2021/12/21 11:03:51;;;;;;;16.05;8.80;;;;;;;;;;5031571;28;20088;-67
2021/12/21 11:06:19;;;;;;;17.60;8.40;;;;;;;;;;5030739;28;20056;-67
2021/12/21 11:08:46;;;;;;;16.48;9.60;;;;;;;;;;5030301;28;20045;-66
2021/12/21 11:11:22;;;;;;;19.13;8.85;;;;;;;;;;5029682;28;20109;-67
2021/12/21 11:14:08;;;;;;;22.13;8.90;;;;;;;;;;5029833;28;20017;-68
2021/12/21 11:16:36;;;;;;;15.43;8.50;;;;;;;;;;5031579;28;20072;-67
2021/12/21 11:19:02;;;;;;;14.77;8.38;;;;;;;;;;5032331;28;20494;-67
2021/12/21 11:21:30;;;;;;;15.82;9.10;;;;;;;;;;5032090;28;20053;-66
2021/12/21 11:23:56;;;;;;;20.65;10.50;;;;;;;;;;5031389;28;20017;-68
2021/12/21 11:26:22;;;;;;;26.67;10.90;;;;;;;;;;5032118;28;20032;-68
2021/12/21 11:28:49;;;;;;;16.02;8.88;;;;;;;;;;5031830;28;20083;-67
2021/12/21 11:31:17;;;;;;;29.55;10.02;;;;;;;;;;5031729;28;20030;-67
2021/12/21 11:33:45;;;;;;;29.15;9.38;;;;;;;;;;5031378;28;20024;-67
2021/12/21 11:38:58;;;;;;;35.90;9.23;;;;;;;;;;5031717;28;20505;-67
2021/12/21 11:41:24;;;;;;;30.25;9.85;;;;;;;;;;5032138;28;20021;-68
2021/12/21 11:43:58;;;;;;;27.60;9.57;;;;;;;;;;5030975;28;20032;-67
2021/12/21 11:46:27;;;;;;;25.90;9.40;;;;;;;;;;5032117;28;20055;-67
2021/12/21 11:49:00;;;;;;;16.15;8.25;;;;;;;;;;5031406;28;20025;-67
2021/12/21 11:51:27;;;;;;;20.67;8.43;;;;;;;;;;5031604;28;20049;-68
2021/12/21 11:53:54;;;;;;;19.13;9.20;;;;;;;;;;5029451;28;20047;-67
2021/12/21 11:56:22;;;;;;;27.20;8.85;;;;;;;;;;5031027;28;20467;-67
2021/12/21 11:58:50;;;;;;;21.10;9.07;;;;;;;;;;5031274;28;20360;-68
2021/12/21 12:01:20;;;;;;;19.27;8.52;;;;;;;;;;5031412;28;20018;-67
2021/12/21 12:03:59;;;;;;;14.15;7.07;;;;;;;;;;5030800;28;20063;-68
2021/12/21 12:06:26;;;;;;;19.30;7.28;;;;;;;;;;5031462;28;20392;-68
2021/12/21 12:08:56;;;;;;;16.40;8.23;;;;;;;;;;5029620;28;20080;-67
2021/12/21 12:11:26;;;;;;;13.93;7.57;;;;;;;;;;5030735;28;20036;-68
2021/12/21 12:14:07;;;;;;;13.88;7.68;;;;;;;;;;5031063;28;20303;-68
2021/12/21 12:16:40;;;;;;;17.10;7.80;;;;;;;;;;5030328;28;20030;-68
2021/12/21 12:19:10;;;;;;;16.17;7.00;;;;;;;;;;5031173;28;20025;-67
2021/12/21 12:21:36;;;;;;;15.80;7.63;;;;;;;;;;5031491;28;20022;-67
2021/12/21 12:24:04;;;;;;;16.10;7.70;;;;;;;;;;5030711;28;20108;-68
2021/12/21 12:26:38;;;;;;;16.42;7.75;;;;;;;;;;5031596;28;20017;-67
2021/12/21 12:29:11;;;;;;;12.10;7.50;;;;;;;;;;5018168;28;20079;-67
2021/12/21 12:31:38;;;;;;;13.98;7.65;;;;;;;;;;5026750;28;20056;-67
2021/12/21 12:34:05;;;;;;;15.20;7.82;;;;;;;;;;5011023;28;20109;-67
2021/12/21 12:36:34;;;;;;;15.00;7.65;;;;;;;;;;5012376;28;20025;-67
2021/12/21 12:39:00;;;;;;;14.25;7.45;;;;;;;;;;5027313;28;20049;-67
2021/12/21 12:41:26;;;;;;;13.30;7.30;;;;;;;;;;5012387;28;20022;-68
2021/12/21 12:43:52;;;;;;;16.45;6.95;;;;;;;;;;5012166;28;20026;-67
2021/12/21 12:46:26;;;;;;;14.00;7.95;;;;;;;;;;5012018;28;20088;-68
2021/12/21 12:48:52;;;;;;;17.20;7.53;;;;;;;;;;5012603;28;20030;-68
2021/12/21 12:51:29;;;;;;;17.60;8.25;;;;;;;;;;5011550;28;20026;-67
2021/12/21 12:53:55;;;;;;;11.43;7.57;;;;;;;;;;5010852;28;20018;-67
2021/12/21 12:56:21;;;;;;;24.50;8.85;;;;;;;;;;5011377;28;20036;-67
2021/12/21 12:58:55;;;;;;;17.52;8.30;;;;;;;;;;5010843;28;20018;-67
2021/12/21 13:01:27;;;;;;;14.35;9.07;;;;;;;;;;5011381;28;20502;-67
2021/12/21 13:03:55;;;;;;;16.15;8.80;;;;;;;;;;5010501;28;20084;-67
2021/12/21 13:06:21;;;;;;;14.38;7.32;;;;;;;;;;5011644;28;20427;-68
2021/12/21 13:08:47;;;;;;;12.60;7.85;;;;;;;;;;5011155;28;20026;-67
2021/12/21 13:11:17;;;;;;;16.98;8.60;;;;;;;;;;5011251;28;20023;-67
2021/12/21 13:13:45;;;;;;;11.23;6.17;;;;;;;;;;5025744;28;20029;-67
2021/12/21 13:16:12;;;;;;;17.55;8.80;;;;;;;;;;5011186;28;20818;-68
2021/12/21 13:18:46;;;;;;;14.23;9.45;;;;;;;;;;5010861;28;20487;-66
2021/12/21 13:21:27;;;;;;;16.15;8.38;;;;;;;;;;5013998;28;20253;-68
2021/12/21 13:24:05;;;;;;;15.77;7.32;;;;;;;;;;5029014;28;20141;-66
2021/12/21 13:26:38;;;;;;;12.85;7.70;;;;;;;;;;5014959;28;20494;-66
2021/12/21 13:29:05;;;;;;;11.82;7.68;;;;;;;;;;5014317;28;20165;-67
2021/12/21 13:31:31;;;;;;;13.02;8.48;;;;;;;;;;5014310;28;20073;-68
2021/12/21 13:33:58;;;;;;;16.90;8.18;;;;;;;;;;5013736;28;20026;-67
2021/12/21 13:36:37;;;;;;;13.07;7.95;;;;;;;;;;5014088;28;20364;-67
2021/12/21 13:39:14;;;;;;;21.95;8.98;;;;;;;;;;5013971;28;20036;-66
2021/12/21 13:41:51;;;;;;;13.65;8.43;;;;;;;;;;5014251;28;20072;-67
2021/12/21 13:44:25;;;;;;;20.55;9.20;;;;;;;;;;5013883;28;20080;-68
2021/12/21 13:46:51;;;;;;;16.15;8.85;;;;;;;;;;5013849;28;20022;-68
2021/12/21 13:49:17;;;;;;;14.98;9.07;;;;;;;;;;5013783;28;20025;-67
2021/12/21 13:52:01;;;;;;;19.52;9.27;;;;;;;;;;5013770;28;20026;-67
2021/12/21 13:54:27;;;;;;;12.82;8.18;;;;;;;;;;5017769;28;20436;-67
2021/12/21 13:56:54;;;;;;;15.45;9.23;;;;;;;;;;5031767;28;20021;-67
2021/12/21 13:59:21;;;;;;;14.68;8.75;;;;;;;;;;5032323;28;20083;-67
2021/12/21 14:01:49;;;;;;;14.48;8.10;;;;;;;;;;5031305;28;20017;-67
2021/12/21 14:04:17;;;;;;;17.02;9.25;;;;;;;;;;5030883;28;20022;-67
2021/12/21 14:06:44;;;;;;;17.15;10.10;;;;;;;;;;5030796;28;20033;-67
2021/12/21 14:09:12;;;;;;;15.02;9.23;;;;;;;;;;5030151;28;20045;-67
2021/12/21 14:11:39;;;;;;;17.42;9.10;;;;;;;;;;5029948;28;20105;-68
2021/12/21 14:14:12;;;;;;;14.38;9.20;;;;;;;;;;5032331;28;20037;-68
2021/12/21 14:16:40;;;;;;;16.05;9.27;;;;;;;;;;5033104;28;20064;-68
2021/12/21 14:19:07;;;;;;;17.23;9.32;;;;;;;;;;5033483;28;20030;-69
2021/12/21 14:21:37;;;;;;;16.92;9.85;;;;;;;;;;5027324;28;20120;-68
2021/12/21 14:24:05;;;;;;;18.52;10.23;;;;;;;;;;5032443;28;20575;-68
2021/12/21 14:26:38;;;;;;;15.40;10.00;;;;;;;;;;5032540;28;20033;-67
2021/12/21 14:29:06;;;;;;;21.42;9.70;;;;;;;;;;5033299;28;20049;-67
2021/12/21 14:31:44;;;;;;;15.32;10.07;;;;;;;;;;5032682;28;20030;-67
2021/12/21 14:34:10;;;;;;;18.15;9.85;;;;;;;;;;5032875;28;20434;-67
2021/12/21 14:36:37;;;;;;;19.08;9.23;;;;;;;;;;5032451;28;20410;-68
2021/12/21 14:39:03;;;;;;;19.92;10.23;;;;;;;;;;5032744;28;20107;-70
2021/12/21 14:41:37;;;;;;;20.40;10.38;;;;;;;;;;5033071;28;20029;-69
2021/12/21 14:44:04;;;;;;;15.23;9.27;;;;;;;;;;5032534;28;20525;-67
2021/12/21 14:46:31;;;;;;;12.13;7.95;;;;;;;;;;5032942;28;20076;-67
2021/12/21 14:49:01;;;;;;;17.75;9.13;;;;;;;;;;5032670;28;20086;-67
2021/12/21 14:51:28;;;;;;;19.10;10.05;;;;;;;;;;5033116;28;20029;-67
2021/12/21 14:54:07;;;;;;;17.08;9.00;;;;;;;;;;5031850;28;20024;-68
2021/12/21 14:56:34;;;;;;;17.92;10.00;;;;;;;;;;5033254;28;20035;-67
2021/12/21 14:59:01;;;;;;;15.40;10.48;;;;;;;;;;5032676;28;20040;-67
2021/12/21 15:01:38;;;;;;;14.85;9.25;;;;;;;;;;5031051;28;20022;-67
2021/12/21 15:04:17;;;;;;;21.98;10.40;;;;;;;;;;5031523;28;20391;-66
2021/12/21 15:06:44;;;;;;;20.42;11.10;;;;;;;;;;5031203;28;20026;-68
2021/12/21 15:09:10;;;;;;;16.15;10.23;;;;;;;;;;5031140;28;20108;-68
2021/12/21 15:11:36;;;;;;;20.40;11.05;;;;;;;;;;5032163;28;20384;-67
2021/12/21 15:14:02;;;;;;;16.13;10.00;;;;;;;;;;5029935;28;20044;-66
2021/12/21 15:16:28;;;;;;;17.88;10.98;;;;;;;;;;5031920;28;20040;-67
2021/12/21 15:18:54;;;;;;;17.45;11.10;;;;;;;;;;5030540;28;20068;-67
2021/12/21 15:21:19;;;;;;;18.48;10.82;;;;;;;;;;5030746;28;20063;-68
2021/12/21 15:23:45;;;;;;;22.60;11.45;;;;;;;;;;5031463;28;20029;-69
2021/12/21 15:26:11;;;;;;;17.98;11.55;;;;;;;;;;5032162;28;20030;-67
2021/12/21 15:28:37;;;;;;;24.55;12.18;;;;;;;;;;5031335;28;20033;-67
2021/12/21 15:31:03;;;;;;;20.23;11.95;;;;;;;;;;5029082;28;20133;-68